createdAt,value
2018-04-15T07:38:44.940Z,72.77
2018-04-15T07:41:18.400Z,70.07
2018-04-15T07:43:52.036Z,74.03
2018-04-15T07:46:26.682Z,74.23
2018-04-15T07:49:00.371Z,77.43
2018-04-15T07:51:35.000Z,71.63
2018-04-15T07:54:08.636Z,69.53
2018-04-15T07:56:43.081Z,66.77
2018-04-15T07:59:16.730Z,65.97
2018-04-15T08:01:50.651Z,70.90
2018-04-15T08:04:25.069Z,70.40
2018-04-15T08:06:59.517Z,60.80
2018-04-15T08:09:33.153Z,61.93
2018-04-15T08:12:07.796Z,63.13
2018-04-15T08:14:42.393Z,62.60
2018-04-15T08:17:17.039Z,56.20
2018-04-15T08:19:50.686Z,59.03
2018-04-15T08:22:25.442Z,55.67
2018-04-15T08:24:59.531Z,58.20
2018-04-15T08:27:35.983Z,55.17
2018-04-15T08:30:09.618Z,52.30
2018-04-15T08:32:44.260Z,51.90
2018-04-15T08:35:17.887Z,46.90
2018-04-15T08:37:51.300Z,39.63
2018-04-15T08:40:25.943Z,37.80
2018-04-15T08:43:00.617Z,42.70
2018-04-15T08:45:35.219Z,42.70
2018-04-15T08:48:09.485Z,47.03
2018-04-15T08:50:43.884Z,43.17
2018-04-15T08:53:18.535Z,40.97
2018-04-15T08:55:53.185Z,44.20
2018-04-15T08:58:26.858Z,43.67
2018-04-15T09:01:00.744Z,40.17
2018-04-15T09:03:36.303Z,42.37
2018-04-15T09:06:19.372Z,41.97
2018-04-15T09:09:00.184Z,42.57
2018-04-15T09:11:46.097Z,41.27
2018-04-15T09:14:27.432Z,44.13
2018-04-15T09:19:55.342Z,40.17
2018-04-15T09:22:29.923Z,38.67
2018-04-15T09:25:04.509Z,36.73
2018-04-15T09:27:38.299Z,37.37
2018-04-15T09:30:12.878Z,41.13
2018-04-15T09:32:56.010Z,41.73
2018-04-15T09:35:34.509Z,43.10
2018-04-15T09:38:10.614Z,41.30
2018-04-15T09:40:48.474Z,42.53
2018-04-15T09:46:09.461Z,38.57
2018-04-15T09:48:46.565Z,38.90
2018-04-15T09:51:23.911Z,42.57
2018-04-15T09:54:02.180Z,38.08
2018-04-15T09:56:40.878Z,38.60
2018-04-15T09:59:16.395Z,38.97
2018-04-15T10:02:00.204Z,36.80
2018-04-15T10:04:37.401Z,42.23
2018-04-15T10:07:19.302Z,47.03
2018-04-15T10:09:58.847Z,44.20
2018-04-15T10:12:36.636Z,42.17
2018-04-15T10:15:17.528Z,44.33
2018-04-15T10:20:33.510Z,40.10
2018-04-15T10:23:10.115Z,41.67
2018-04-15T10:25:51.157Z,41.50
2018-04-15T10:28:27.486Z,41.53
2018-04-15T10:31:05.497Z,37.87
2018-04-15T10:33:43.562Z,38.63
2018-04-15T10:36:17.341Z,39.53
2018-04-15T10:38:51.008Z,38.80
2018-04-15T10:41:25.470Z,34.57
2018-04-15T10:44:01.155Z,35.83
2018-04-15T10:46:35.761Z,36.00
2018-04-15T10:49:09.435Z,35.20
2018-04-15T10:51:43.072Z,34.77
2018-04-15T10:54:18.533Z,35.13
2018-04-15T10:57:05.820Z,36.03
2018-04-15T10:59:39.656Z,35.67
2018-04-15T11:02:13.295Z,36.07
2018-04-15T11:04:47.956Z,39.10
2018-04-15T11:10:29.089Z,38.70
2018-04-15T11:13:15.493Z,34.27
2018-04-15T11:18:47.753Z,38.90
2018-04-15T11:21:25.364Z,36.40
2018-04-15T11:24:10.138Z,36.97
2018-04-15T11:26:47.491Z,38.93
2018-04-15T11:29:21.174Z,38.40
2018-04-15T11:31:59.264Z,38.53
2018-04-15T11:34:33.021Z,42.83
2018-04-15T11:37:12.397Z,44.47
2018-04-15T11:39:48.419Z,45.90
2018-04-15T11:42:23.850Z,48.83
2018-04-15T11:44:58.061Z,44.53
2018-04-15T11:47:33.490Z,45.83
2018-04-15T11:50:09.360Z,51.60
2018-04-15T11:52:46.056Z,47.73
2018-04-15T11:55:20.905Z,50.20
2018-04-15T11:57:56.939Z,48.80
2018-04-15T12:00:32.153Z,57.37
2018-04-15T12:03:09.321Z,61.10
2018-04-15T12:05:43.030Z,52.77
2018-04-15T12:08:16.773Z,43.77
2018-04-15T12:10:55.357Z,45.27
2018-04-15T12:13:30.739Z,43.93
2018-04-15T12:16:04.413Z,42.50
2018-04-15T12:18:39.780Z,37.73
2018-04-15T12:21:13.466Z,39.43
2018-04-15T12:23:49.091Z,37.00
2018-04-15T12:26:23.545Z,38.17
2018-04-15T12:28:58.182Z,35.03
2018-04-15T12:31:32.835Z,32.53
2018-04-15T12:34:07.423Z,35.23
2018-04-15T12:36:41.093Z,34.33
2018-04-15T12:39:15.499Z,32.37
2018-04-15T12:41:49.946Z,32.93
2018-04-15T12:44:23.594Z,28.30
2018-04-15T12:46:57.268Z,30.63
2018-04-15T12:49:30.916Z,28.47
2018-04-15T12:52:04.601Z,25.47
2018-04-15T12:54:38.255Z,26.07
2018-04-15T12:57:11.924Z,28.13
2018-04-15T12:59:46.548Z,29.00
2018-04-15T13:02:21.176Z,28.43
2018-04-15T13:04:55.581Z,26.97
2018-04-15T13:07:29.255Z,27.87
2018-04-15T13:10:06.277Z,26.77
2018-04-15T13:12:40.713Z,25.93
2018-04-15T13:15:14.390Z,23.77
2018-04-15T13:17:48.022Z,27.63
2018-04-15T13:20:21.744Z,27.13
2018-04-15T13:22:55.429Z,28.90
2018-04-15T13:25:31.594Z,32.70
2018-04-15T13:28:20.283Z,31.40
2018-04-15T13:30:57.791Z,33.27
2018-04-15T13:33:31.645Z,31.40
2018-04-15T13:36:06.304Z,33.20
2018-04-15T13:38:40.947Z,33.50
2018-04-15T13:41:14.632Z,32.83
2018-04-15T13:43:48.264Z,36.40
2018-04-15T13:46:23.675Z,32.87
2018-04-15T13:48:57.128Z,34.93
2018-04-15T13:51:30.443Z,34.30
2018-04-15T13:54:04.612Z,32.97
2018-04-15T13:56:39.015Z,34.80
2018-04-15T13:59:13.657Z,31.03
2018-04-15T14:01:49.043Z,34.13
2018-04-15T14:04:22.737Z,36.27
2018-04-15T14:06:58.032Z,35.10
2018-04-15T14:09:32.480Z,34.87
2018-04-15T14:12:11.200Z,32.17
2018-04-15T14:14:45.227Z,28.57
2018-04-15T14:17:18.869Z,30.37
2018-04-15T14:19:52.569Z,34.33
2018-04-15T14:22:27.738Z,31.53
2018-04-15T14:25:01.803Z,32.60
2018-04-15T14:27:46.149Z,33.17
2018-04-15T14:30:20.546Z,31.70
2018-04-15T14:32:56.389Z,30.87
2018-04-15T14:35:30.244Z,33.60
2018-04-15T14:38:03.949Z,32.10
2018-04-15T14:40:39.359Z,34.13
2018-04-15T14:43:14.116Z,33.43
2018-04-15T14:45:48.068Z,31.20
2018-04-15T14:48:22.710Z,32.47
2018-04-15T14:50:56.340Z,33.87
2018-04-15T14:53:31.012Z,33.63
2018-04-15T14:56:05.623Z,34.67
2018-04-15T14:58:39.291Z,34.00
2018-04-15T15:01:12.920Z,36.93
2018-04-15T15:03:46.605Z,39.87
2018-04-15T15:06:20.289Z,39.50
2018-04-15T15:08:53.971Z,39.17
2018-04-15T15:11:27.604Z,39.33
2018-04-15T15:14:04.290Z,39.20
2018-04-15T15:16:38.100Z,44.93
2018-04-15T15:19:11.593Z,41.10
2018-04-15T15:21:45.244Z,39.80
2018-04-15T15:24:19.889Z,38.60
2018-04-15T15:26:54.494Z,38.33
2018-04-15T15:29:28.164Z,41.20
2018-04-15T15:32:01.633Z,41.47
2018-04-15T15:34:37.078Z,38.50
2018-04-15T15:37:12.492Z,41.47
2018-04-15T15:39:46.163Z,42.13
2018-04-15T15:42:22.929Z,40.93
2018-04-15T15:44:59.230Z,43.03
2018-04-15T15:47:34.044Z,42.17
2018-04-15T15:50:10.608Z,43.53
2018-04-15T15:52:44.037Z,42.30
2018-04-15T15:55:19.472Z,41.17
2018-04-15T15:58:02.944Z,42.77
2018-04-15T16:00:39.529Z,40.13
2018-04-15T16:03:31.296Z,41.43
2018-04-15T16:06:06.167Z,43.33
2018-04-15T16:08:40.770Z,41.93
2018-04-15T16:11:14.448Z,40.97
2018-04-15T16:13:52.161Z,37.83
2018-04-15T16:16:25.920Z,38.70
2018-04-15T16:18:59.601Z,42.63
2018-04-15T16:21:33.462Z,46.70
2018-04-15T16:24:08.032Z,45.97
2018-04-15T16:26:43.560Z,52.17
2018-04-15T16:29:17.236Z,55.83
2018-04-15T16:31:52.648Z,49.97
2018-04-15T16:34:26.333Z,50.60
2018-04-15T16:36:59.988Z,55.40
2018-04-15T16:39:34.433Z,51.70
2018-04-15T16:42:08.077Z,54.10
2018-04-15T16:44:42.719Z,50.97
2018-04-15T16:47:16.906Z,56.27
2018-04-15T16:49:51.348Z,52.30
2018-04-15T16:52:24.693Z,52.03
2018-04-15T16:54:58.365Z,51.73
2018-04-15T16:57:32.074Z,50.97
2018-04-15T17:00:06.665Z,53.67
2018-04-15T17:02:41.313Z,49.27
2018-04-15T17:05:14.956Z,48.80
2018-04-15T17:07:48.644Z,48.20
2018-04-15T17:10:22.285Z,46.67
2018-04-15T17:12:55.984Z,47.70
2018-04-15T17:15:30.400Z,49.50
2018-04-15T17:18:05.071Z,45.87
2018-04-15T17:20:39.728Z,43.07
2018-04-15T17:23:14.364Z,44.43
2018-04-15T17:25:48.023Z,43.30
2018-04-15T17:28:21.700Z,46.30
2018-04-15T17:31:01.384Z,43.40
2018-04-15T17:33:36.117Z,46.33
2018-04-15T17:36:09.757Z,43.57
2018-04-15T17:38:44.198Z,47.90
2018-04-15T17:52:37.335Z,46.73
2018-04-15T17:55:11.821Z,52.97
2018-04-15T17:57:46.281Z,54.30
2018-04-15T18:00:19.967Z,56.20
2018-04-15T18:02:53.611Z,55.77
2018-04-15T18:05:27.323Z,56.67
2018-04-15T18:08:01.123Z,51.03
2018-04-15T18:10:34.796Z,55.53
2018-04-15T18:13:08.433Z,57.30
2018-04-15T18:15:42.111Z,57.03
2018-04-15T18:18:15.757Z,60.57
2018-04-15T18:20:49.468Z,66.17
2018-04-15T18:23:23.862Z,62.97
2018-04-15T18:25:59.551Z,62.07
2018-04-15T18:28:34.358Z,65.43
2018-04-15T18:31:09.285Z,71.97
2018-04-15T18:33:43.034Z,62.33
2018-04-15T18:36:16.803Z,72.70
2018-04-15T18:38:50.487Z,71.10
2018-04-15T18:41:27.240Z,74.20
2018-04-15T18:44:09.181Z,69.37
2018-04-15T18:46:45.466Z,72.90
2018-04-15T18:49:20.803Z,78.10
2018-04-15T18:51:54.438Z,71.23
2018-04-15T18:54:27.238Z,71.20
2018-04-15T18:57:02.410Z,74.23
2018-04-15T18:59:37.053Z,80.93
2018-04-15T19:02:10.727Z,76.47
2018-04-15T19:04:45.545Z,83.30
2018-04-15T19:07:20.461Z,87.17
2018-04-15T19:09:57.615Z,80.57
2018-04-15T19:12:31.248Z,75.53
2018-04-15T19:15:06.622Z,81.43
2018-04-15T19:17:40.256Z,75.10
2018-04-15T19:20:13.933Z,80.87
2018-04-15T19:22:48.976Z,81.33
2018-04-15T19:25:22.613Z,84.70
2018-04-15T19:27:57.267Z,78.27
2018-04-15T19:30:31.872Z,85.63
2018-04-15T19:33:06.308Z,82.83
2018-04-15T19:35:39.935Z,79.37
2018-04-15T19:38:15.058Z,85.53
2018-04-15T19:40:48.698Z,90.77
2018-04-15T19:43:22.184Z,84.77
2018-04-15T19:45:56.608Z,86.83
2018-04-15T19:48:30.093Z,84.30
2018-04-15T19:51:03.709Z,94.50
2018-04-15T19:53:38.029Z,89.63
2018-04-15T19:56:11.651Z,83.90
2018-04-15T19:58:45.320Z,87.30
2018-04-15T20:01:19.920Z,88.90
2018-04-15T20:03:54.890Z,85.07
2018-04-15T20:06:28.583Z,79.23
2018-04-15T20:09:02.257Z,77.40
2018-04-15T20:11:43.100Z,77.60
2018-04-15T20:14:17.769Z,78.87
2018-04-15T20:16:52.604Z,80.30
2018-04-15T20:19:26.273Z,74.90
2018-04-15T20:22:00.982Z,76.63
2018-04-15T20:24:34.624Z,72.87
2018-04-15T20:27:08.321Z,79.37
2018-04-15T20:29:41.951Z,81.73
2018-04-15T20:32:15.311Z,83.30
2018-04-15T20:34:48.943Z,74.73
2018-04-15T20:37:22.621Z,80.97
2018-04-15T20:39:55.979Z,73.80
2018-04-15T20:42:29.651Z,90.60
2018-04-15T20:45:04.097Z,78.23
2018-04-15T20:47:42.367Z,87.30
2018-04-15T20:50:18.625Z,78.50
2018-04-15T20:52:53.155Z,85.70
2018-04-15T20:55:30.119Z,85.90
2018-04-15T20:58:04.885Z,76.80
2018-04-15T21:00:40.989Z,93.33
2018-04-15T21:03:14.833Z,84.87
2018-04-15T21:05:50.821Z,83.00
2018-04-15T21:08:24.534Z,87.50
2018-04-15T21:10:58.753Z,84.00
2018-04-15T21:13:32.446Z,74.23
2018-04-15T21:16:06.764Z,83.63
2018-04-15T21:18:40.436Z,91.30
2018-04-15T21:21:14.089Z,83.77
2018-04-15T21:23:48.768Z,88.80
2018-04-15T21:26:22.536Z,88.70
2018-04-15T21:28:56.212Z,92.07
2018-04-15T21:31:30.438Z,91.87
2018-04-15T21:34:04.103Z,87.40
2018-04-15T21:36:37.739Z,90.87
2018-04-15T21:39:11.180Z,83.87
2018-04-15T21:41:44.588Z,93.40
2018-04-15T21:44:18.048Z,84.20
2018-04-15T21:46:52.441Z,85.77
2018-04-15T21:49:26.137Z,82.43
2018-04-15T21:51:59.769Z,95.97
2018-04-15T21:54:34.218Z,81.83
2018-04-15T21:57:07.628Z,79.50
2018-04-15T21:59:41.077Z,98.47
2018-04-15T22:02:15.468Z,91.00
2018-04-15T22:04:49.923Z,106.40
2018-04-15T22:07:24.548Z,91.27
2018-04-15T22:09:58.985Z,87.83
2018-04-15T22:12:33.527Z,102.17
2018-04-15T22:15:10.805Z,113.33
2018-04-15T22:17:44.444Z,108.30
2018-04-15T22:20:19.693Z,89.93
2018-04-15T22:22:54.565Z,102.93
2018-04-15T22:25:30.705Z,109.00
2018-04-15T22:28:04.346Z,102.80
2018-04-15T22:30:41.117Z,90.10
2018-04-15T22:33:15.406Z,97.23
2018-04-15T22:35:51.507Z,109.07
2018-04-15T22:38:25.167Z,104.97
2018-04-15T22:43:57.485Z,126.27
2018-04-15T22:46:36.654Z,85.47
2018-04-15T22:49:15.778Z,90.67
2018-04-15T22:51:49.458Z,80.73
2018-04-15T22:54:23.616Z,90.47
2018-04-15T22:57:02.927Z,85.60
2018-04-15T22:59:37.510Z,84.60
2018-04-15T23:02:16.807Z,86.47
2018-04-15T23:07:30.507Z,83.77
2018-04-15T23:10:07.815Z,92.53
2018-04-15T23:12:42.025Z,95.87
2018-04-15T23:15:17.308Z,101.00
2018-04-15T23:17:51.396Z,100.20
2018-04-15T23:20:29.140Z,95.87
2018-04-15T23:23:05.025Z,91.93
2018-04-15T23:25:38.666Z,100.27
2018-04-15T23:28:13.296Z,91.87
2018-04-15T23:30:48.174Z,101.63
2018-04-15T23:33:27.240Z,95.23
2018-04-15T23:36:01.116Z,91.40
2018-04-15T23:38:38.058Z,102.90
2018-04-15T23:41:13.153Z,117.23
2018-04-15T23:43:47.503Z,128.27
2018-04-15T23:46:21.140Z,109.63
2018-04-15T23:48:56.059Z,116.70
2018-04-15T23:51:29.693Z,113.33
2018-04-15T23:54:06.324Z,92.97
2018-04-15T23:56:39.745Z,93.93
2018-04-15T23:59:22.139Z,110.03
